sensor_id;sensor_type;location;lat;lon;timestamp;pressure;altitude;pressure_sealevel;temperature;humidity
34979;BME280;21185;50.978;13.720;2023-12-20T00:03:13;97844.25;;;7.46;77.95
34979;BME280;21185;50.978;13.720;2023-12-20T00:08:15;97820.69;;;7.41;77.90
34979;BME280;21185;50.978;13.720;2023-12-20T00:13:18;97824.81;;;7.34;78.13
34979;BME280;21185;50.978;13.720;2023-12-20T00:18:20;97820.94;;;7.30;78.04
34979;BME280;21185;50.978;13.720;2023-12-20T00:23:23;97804.44;;;7.23;78.08
34979;BME280;21185;50.978;13.720;2023-12-20T00:28:25;97808.28;;;7.19;78.03
34979;BME280;21185;50.978;13.720;2023-12-20T00:33:30;97794.69;;;7.08;78.28
34979;BME280;21185;50.978;13.720;2023-12-20T00:38:32;97798.53;;;7.04;78.28
34979;BME280;21185;50.978;13.720;2023-12-20T00:43:34;97800.44;;;7.02;78.10
34979;BME280;21185;50.978;13.720;2023-12-20T00:48:37;97793.31;;;6.96;78.03
34979;BME280;21185;50.978;13.720;2023-12-20T00:53:39;97786.47;;;6.87;78.23
34979;BME280;21185;50.978;13.720;2023-12-20T00:58:41;97785.97;;;6.83;78.39
34979;BME280;21185;50.978;13.720;2023-12-20T01:03:43;97779.63;;;6.78;78.29
34979;BME280;21185;50.978;13.720;2023-12-20T01:08:46;97765.13;;;6.77;78.25
34979;BME280;21185;50.978;13.720;2023-12-20T01:13:48;97758.81;;;6.71;78.17
34979;BME280;21185;50.978;13.720;2023-12-20T01:18:50;97756.00;;;6.65;78.47
34979;BME280;21185;50.978;13.720;2023-12-20T01:23:52;97752.25;;;6.59;78.70
34979;BME280;21185;50.978;13.720;2023-12-20T01:28:54;97756.75;;;6.57;78.64
34979;BME280;21185;50.978;13.720;2023-12-20T01:33:56;97752.56;;;6.56;78.42
34979;BME280;21185;50.978;13.720;2023-12-20T01:38:59;97749.47;;;6.53;78.55
34979;BME280;21185;50.978;13.720;2023-12-20T01:44:03;97746.25;;;6.50;78.59
34979;BME280;21185;50.978;13.720;2023-12-20T01:49:06;97749.91;;;6.48;78.41
34979;BME280;21185;50.978;13.720;2023-12-20T01:54:09;97747.34;;;6.48;78.18
34979;BME280;21185;50.978;13.720;2023-12-20T01:59:12;97742.34;;;6.46;78.18
34979;BME280;21185;50.978;13.720;2023-12-20T02:04:15;97746.53;;;6.47;78.35
34979;BME280;21185;50.978;13.720;2023-12-20T02:09:18;97734.47;;;6.48;78.08
34979;BME280;21185;50.978;13.720;2023-12-20T02:14:20;97726.06;;;6.46;78.05
34979;BME280;21185;50.978;13.720;2023-12-20T02:19:22;97738.00;;;6.47;78.08
34979;BME280;21185;50.978;13.720;2023-12-20T02:24:24;97726.88;;;6.46;78.18
34979;BME280;21185;50.978;13.720;2023-12-20T02:29:26;97734.25;;;6.41;77.95
34979;BME280;21185;50.978;13.720;2023-12-20T02:34:29;97725.19;;;6.37;78.27
34979;BME280;21185;50.978;13.720;2023-12-20T02:39:31;97716.16;;;6.33;78.41
34979;BME280;21185;50.978;13.720;2023-12-20T02:44:35;97715.47;;;6.31;78.25
34979;BME280;21185;50.978;13.720;2023-12-20T02:49:38;97701.94;;;6.29;78.30
34979;BME280;21185;50.978;13.720;2023-12-20T02:54:49;97701.56;;;6.24;78.69
34979;BME280;21185;50.978;13.720;2023-12-20T02:59:53;97712.47;;;6.18;78.62
34979;BME280;21185;50.978;13.720;2023-12-20T03:04:55;97708.56;;;6.14;79.12
34979;BME280;21185;50.978;13.720;2023-12-20T03:09:57;97705.34;;;6.12;79.07
34979;BME280;21185;50.978;13.720;2023-12-20T03:15:19;97692.59;;;6.10;79.36
34979;BME280;21185;50.978;13.720;2023-12-20T03:20:21;97695.31;;;6.09;79.32
34979;BME280;21185;50.978;13.720;2023-12-20T03:25:23;97688.56;;;6.08;79.38
34979;BME280;21185;50.978;13.720;2023-12-20T03:30:25;97687.59;;;6.09;79.52
34979;BME280;21185;50.978;13.720;2023-12-20T03:35:27;97684.88;;;6.10;79.42
34979;BME280;21185;50.978;13.720;2023-12-20T03:40:30;97682.59;;;6.07;79.24
34979;BME280;21185;50.978;13.720;2023-12-20T03:45:33;97681.13;;;6.05;79.50
34979;BME280;21185;50.978;13.720;2023-12-20T03:50:35;97679.81;;;6.01;79.88
34979;BME280;21185;50.978;13.720;2023-12-20T03:55:38;97688.63;;;5.98;80.04
34979;BME280;21185;50.978;13.720;2023-12-20T04:00:40;97686.06;;;5.98;80.09
34979;BME280;21185;50.978;13.720;2023-12-20T04:05:42;97691.06;;;6.00;80.13
34979;BME280;21185;50.978;13.720;2023-12-20T04:10:45;97687.81;;;5.98;80.18
34979;BME280;21185;50.978;13.720;2023-12-20T04:15:47;97686.06;;;5.98;80.34
34979;BME280;21185;50.978;13.720;2023-12-20T04:20:52;97685.91;;;6.00;80.45
34979;BME280;21185;50.978;13.720;2023-12-20T04:25:55;97679.81;;;6.01;80.48
34979;BME280;21185;50.978;13.720;2023-12-20T04:30:58;97685.75;;;6.01;80.69
34979;BME280;21185;50.978;13.720;2023-12-20T04:36:01;97678.34;;;5.98;80.90
34979;BME280;21185;50.978;13.720;2023-12-20T04:41:04;97685.75;;;6.01;80.52
34979;BME280;21185;50.978;13.720;2023-12-20T04:46:06;97684.66;;;6.04;80.71
34979;BME280;21185;50.978;13.720;2023-12-20T04:51:08;97685.97;;;6.08;80.59
34979;BME280;21185;50.978;13.720;2023-12-20T04:56:10;97691.28;;;6.06;80.66
34979;BME280;21185;50.978;13.720;2023-12-20T05:01:12;97691.44;;;6.05;80.80
34979;BME280;21185;50.978;13.720;2023-12-20T05:06:15;97699.00;;;6.06;80.94
34979;BME280;21185;50.978;13.720;2023-12-20T05:11:17;97693.06;;;6.06;81.05
34979;BME280;21185;50.978;13.720;2023-12-20T05:16:20;97696.28;;;6.08;81.27
34979;BME280;21185;50.978;13.720;2023-12-20T05:21:22;97696.00;;;6.11;81.50
34979;BME280;21185;50.978;13.720;2023-12-20T05:26:24;97698.72;;;6.09;81.42
34979;BME280;21185;50.978;13.720;2023-12-20T05:31:27;97714.16;;;6.09;81.93
34979;BME280;21185;50.978;13.720;2023-12-20T05:36:29;97710.50;;;6.12;81.94
34979;BME280;21185;50.978;13.720;2023-12-20T05:41:31;97701.00;;;6.12;81.72
34979;BME280;21185;50.978;13.720;2023-12-20T05:46:33;97712.41;;;6.10;82.11
34979;BME280;21185;50.978;13.720;2023-12-20T05:51:38;97721.09;;;6.09;82.39
34979;BME280;21185;50.978;13.720;2023-12-20T05:56:39;97714.31;;;6.08;82.72
34979;BME280;21185;50.978;13.720;2023-12-20T06:01:41;97718.81;;;6.06;82.77
34979;BME280;21185;50.978;13.720;2023-12-20T06:06:44;97738.97;;;6.10;82.74
34979;BME280;21185;50.978;13.720;2023-12-20T06:11:46;97740.44;;;6.13;82.73
34979;BME280;21185;50.978;13.720;2023-12-20T06:16:48;97728.53;;;6.12;82.50
34979;BME280;21185;50.978;13.720;2023-12-20T06:21:50;97735.28;;;6.13;82.69
34979;BME280;21185;50.978;13.720;2023-12-20T06:26:52;97729.19;;;6.14;82.70
34979;BME280;21185;50.978;13.720;2023-12-20T06:31:54;97730.94;;;6.13;82.75
34979;BME280;21185;50.978;13.720;2023-12-20T06:36:56;97743.69;;;6.15;82.78
34979;BME280;21185;50.978;13.720;2023-12-20T06:41:58;97759.13;;;6.15;82.90
34979;BME280;21185;50.978;13.720;2023-12-20T06:47:01;97766.88;;;6.15;82.98
34979;BME280;21185;50.978;13.720;2023-12-20T06:52:04;97767.53;;;6.17;83.06
34979;BME280;21185;50.978;13.720;2023-12-20T06:57:07;97770.09;;;6.17;83.03
34979;BME280;21185;50.978;13.720;2023-12-20T07:02:09;97781.38;;;6.16;83.11
34979;BME280;21185;50.978;13.720;2023-12-20T07:07:16;97792.47;;;6.16;83.15
34979;BME280;21185;50.978;13.720;2023-12-20T07:12:18;97790.03;;;6.15;83.56
34979;BME280;21185;50.978;13.720;2023-12-20T07:17:21;97794.09;;;6.17;83.15
34979;BME280;21185;50.978;13.720;2023-12-20T07:22:24;97790.41;;;6.20;83.11
34979;BME280;21185;50.978;13.720;2023-12-20T07:27:26;97794.91;;;6.18;83.53
34979;BME280;21185;50.978;13.720;2023-12-20T07:32:28;97795.19;;;6.15;83.38
34979;BME280;21185;50.978;13.720;2023-12-20T07:37:31;97798.59;;;6.15;83.58
34979;BME280;21185;50.978;13.720;2023-12-20T07:42:33;97789.75;;;6.18;83.29
34979;BME280;21185;50.978;13.720;2023-12-20T07:47:35;97799.25;;;6.17;83.23
34979;BME280;21185;50.978;13.720;2023-12-20T07:52:37;97799.41;;;6.16;83.37
34979;BME280;21185;50.978;13.720;2023-12-20T07:57:39;97799.84;;;6.11;82.91
34979;BME280;21185;50.978;13.720;2023-12-20T08:02:42;97785.78;;;6.06;82.66
34979;BME280;21185;50.978;13.720;2023-12-20T08:07:46;97803.81;;;6.06;82.25
34979;BME280;21185;50.978;13.720;2023-12-20T08:12:49;97805.78;;;6.12;82.44
34979;BME280;21185;50.978;13.720;2023-12-20T08:17:54;97802.50;;;6.20;82.10
34979;BME280;21185;50.978;13.720;2023-12-20T08:22:57;97805.97;;;6.28;81.96
34979;BME280;21185;50.978;13.720;2023-12-20T08:27:59;97802.94;;;6.33;81.57
34979;BME280;21185;50.978;13.720;2023-12-20T08:33:04;97798.91;;;6.30;81.27
34979;BME280;21185;50.978;13.720;2023-12-20T08:38:07;97794.78;;;6.37;81.21
34979;BME280;21185;50.978;13.720;2023-12-20T08:43:09;97794.31;;;6.42;80.82
34979;BME280;21185;50.978;13.720;2023-12-20T08:48:11;97799.69;;;6.48;80.03
34979;BME280;21185;50.978;13.720;2023-12-20T08:53:14;97793.44;;;6.51;79.39
34979;BME280;21185;50.978;13.720;2023-12-20T08:58:17;97816.63;;;6.51;78.02
34979;BME280;21185;50.978;13.720;2023-12-20T09:03:20;97810.81;;;6.49;77.62
34979;BME280;21185;50.978;13.720;2023-12-20T09:08:22;97820.63;;;6.45;76.98
34979;BME280;21185;50.978;13.720;2023-12-20T09:13:24;97818.34;;;6.42;76.62
34979;BME280;21185;50.978;13.720;2023-12-20T09:18:31;97811.25;;;6.44;76.50
34979;BME280;21185;50.978;13.720;2023-12-20T09:23:33;97827.03;;;6.59;76.86
34979;BME280;21185;50.978;13.720;2023-12-20T09:28:35;97829.88;;;6.92;76.62
34979;BME280;21185;50.978;13.720;2023-12-20T09:33:39;97821.63;;;7.40;75.57
34979;BME280;21185;50.978;13.720;2023-12-20T09:38:47;97820.63;;;7.33;75.01
34979;BME280;21185;50.978;13.720;2023-12-20T09:43:58;97813.81;;;7.24;75.00
34979;BME280;21185;50.978;13.720;2023-12-20T09:49:04;97805.41;;;7.22;75.13
34979;BME280;21185;50.978;13.720;2023-12-20T09:54:07;97798.94;;;7.18;74.72
34979;BME280;21185;50.978;13.720;2023-12-20T09:59:10;97788.31;;;7.21;74.36
34979;BME280;21185;50.978;13.720;2023-12-20T10:04:13;97791.22;;;7.26;74.04
34979;BME280;21185;50.978;13.720;2023-12-20T10:09:32;97788.19;;;7.30;74.04
34979;BME280;21185;50.978;13.720;2023-12-20T10:14:38;97784.16;;;7.28;73.85
34979;BME280;21185;50.978;13.720;2023-12-20T10:19:43;97768.78;;;7.18;73.27
34979;BME280;21185;50.978;13.720;2023-12-20T10:24:45;97767.75;;;7.11;72.83
34979;BME280;21185;50.978;13.720;2023-12-20T10:29:49;97757.25;;;7.04;72.62
34979;BME280;21185;50.978;13.720;2023-12-20T10:34:52;97743.38;;;7.05;72.70
34979;BME280;21185;50.978;13.720;2023-12-20T10:39:55;97744.53;;;7.11;72.68
34979;BME280;21185;50.978;13.720;2023-12-20T10:45:00;97744.69;;;7.09;72.44
34979;BME280;21185;50.978;13.720;2023-12-20T10:50:05;97726.69;;;7.18;71.93
34979;BME280;21185;50.978;13.720;2023-12-20T10:55:07;97714.75;;;7.17;71.87
34979;BME280;21185;50.978;13.720;2023-12-20T11:00:13;97696.34;;;7.11;71.75
34979;BME280;21185;50.978;13.720;2023-12-20T11:05:38;97696.66;;;7.08;71.44
34979;BME280;21185;50.978;13.720;2023-12-20T11:10:51;97698.88;;;7.03;70.73
34979;BME280;21185;50.978;13.720;2023-12-20T11:15:59;97702.06;;;6.97;69.87
34979;BME280;21185;50.978;13.720;2023-12-20T11:21:41;97691.75;;;6.97;70.01
34979;BME280;21185;50.978;13.720;2023-12-20T11:26:47;97694.38;;;7.05;69.79
34979;BME280;21185;50.978;13.720;2023-12-20T11:31:51;97698.59;;;7.14;69.35
34979;BME280;21185;50.978;13.720;2023-12-20T11:37:00;97695.91;;;7.24;69.68
34979;BME280;21185;50.978;13.720;2023-12-20T11:42:05;97689.63;;;7.27;69.65
34979;BME280;21185;50.978;13.720;2023-12-20T11:47:08;97688.63;;;7.20;68.48
34979;BME280;21185;50.978;13.720;2023-12-20T11:52:13;97672.16;;;7.12;68.28
34979;BME280;21185;50.978;13.720;2023-12-20T11:57:15;97664.72;;;7.09;68.04
34979;BME280;21185;50.978;13.720;2023-12-20T12:02:17;97673.56;;;7.07;68.13
34979;BME280;21185;50.978;13.720;2023-12-20T12:07:22;97664.22;;;7.06;67.71
34979;BME280;21185;50.978;13.720;2023-12-20T12:12:24;97647.94;;;7.05;67.68
34979;BME280;21185;50.978;13.720;2023-12-20T12:17:29;97648.91;;;7.04;67.38
34979;BME280;21185;50.978;13.720;2023-12-20T12:22:31;97641.16;;;7.04;67.29
34979;BME280;21185;50.978;13.720;2023-12-20T12:27:35;97635.03;;;7.05;67.31
34979;BME280;21185;50.978;13.720;2023-12-20T12:32:38;97621.97;;;7.07;67.19
34979;BME280;21185;50.978;13.720;2023-12-20T12:37:41;97621.19;;;7.06;66.74
34979;BME280;21185;50.978;13.720;2023-12-20T12:42:45;97612.63;;;7.06;65.97
34979;BME280;21185;50.978;13.720;2023-12-20T12:47:49;97607.16;;;7.09;65.79
34979;BME280;21185;50.978;13.720;2023-12-20T12:52:51;97601.69;;;7.12;66.16
34979;BME280;21185;50.978;13.720;2023-12-20T12:57:54;97595.41;;;7.14;66.08
34979;BME280;21185;50.978;13.720;2023-12-20T13:02:56;97587.97;;;7.11;66.46
34979;BME280;21185;50.978;13.720;2023-12-20T13:07:58;97586.69;;;7.07;66.32
34979;BME280;21185;50.978;13.720;2023-12-20T13:13:00;97582.78;;;7.03;66.29
34979;BME280;21185;50.978;13.720;2023-12-20T13:18:05;97572.94;;;6.99;66.34
34979;BME280;21185;50.978;13.720;2023-12-20T13:23:17;97557.94;;;6.94;66.41
34979;BME280;21185;50.978;13.720;2023-12-20T13:28:22;97552.13;;;6.92;66.25
34979;BME280;21185;50.978;13.720;2023-12-20T13:33:24;97545.50;;;6.90;66.35
34979;BME280;21185;50.978;13.720;2023-12-20T13:38:26;97551.13;;;6.85;66.54
34979;BME280;21185;50.978;13.720;2023-12-20T13:43:28;97560.16;;;6.81;66.53
34979;BME280;21185;50.978;13.720;2023-12-20T13:48:31;97560.63;;;6.76;66.92
34979;BME280;21185;50.978;13.720;2023-12-20T13:53:33;97540.47;;;6.72;67.28
34979;BME280;21185;50.978;13.720;2023-12-20T13:58:41;97538.69;;;6.72;67.58
34979;BME280;21185;50.978;13.720;2023-12-20T14:03:46;97528.53;;;6.71;67.89
34979;BME280;21185;50.978;13.720;2023-12-20T14:09:14;97540.16;;;6.75;67.96
34979;BME280;21185;50.978;13.720;2023-12-20T14:14:16;97530.47;;;6.77;68.14
34979;BME280;21185;50.978;13.720;2023-12-20T14:19:18;97530.16;;;6.80;68.02
34979;BME280;21185;50.978;13.720;2023-12-20T14:24:22;97530.81;;;6.82;67.89
34979;BME280;21185;50.978;13.720;2023-12-20T14:29:23;97523.09;;;6.82;67.55
34979;BME280;21185;50.978;13.720;2023-12-20T14:34:28;97506.97;;;6.80;67.76
34979;BME280;21185;50.978;13.720;2023-12-20T14:39:30;97506.97;;;6.80;67.86
34979;BME280;21185;50.978;13.720;2023-12-20T14:44:32;97513.91;;;6.79;67.60
34979;BME280;21185;50.978;13.720;2023-12-20T14:49:34;97520.81;;;6.79;67.66
34979;BME280;21185;50.978;13.720;2023-12-20T14:54:37;97519.84;;;6.80;67.40
34979;BME280;21185;50.978;13.720;2023-12-20T14:59:39;97513.75;;;6.81;67.26
34979;BME280;21185;50.978;13.720;2023-12-20T15:04:41;97524.69;;;6.83;67.00
34979;BME280;21185;50.978;13.720;2023-12-20T15:09:43;97507.47;;;6.83;66.85
34979;BME280;21185;50.978;13.720;2023-12-20T15:14:49;97526.97;;;6.86;66.58
34979;BME280;21185;50.978;13.720;2023-12-20T15:19:53;97519.88;;;6.88;66.68
34979;BME280;21185;50.978;13.720;2023-12-20T15:24:55;97518.25;;;6.87;66.69
34979;BME280;21185;50.978;13.720;2023-12-20T15:29:57;97507.47;;;6.83;66.87
34979;BME280;21185;50.978;13.720;2023-12-20T15:34:59;97512.94;;;6.80;67.01
34979;BME280;21185;50.978;13.720;2023-12-20T15:40:01;97503.09;;;6.76;67.52
34979;BME280;21185;50.978;13.720;2023-12-20T15:45:07;97503.25;;;6.74;67.54
34979;BME280;21185;50.978;13.720;2023-12-20T15:50:11;97503.25;;;6.74;67.48
34979;BME280;21185;50.978;13.720;2023-12-20T15:55:14;97521.94;;;6.76;67.90
34979;BME280;21185;50.978;13.720;2023-12-20T16:00:16;97531.94;;;6.79;67.97
34979;BME280;21185;50.978;13.720;2023-12-20T16:05:21;97531.13;;;6.79;67.83
34979;BME280;21185;50.978;13.720;2023-12-20T16:10:24;97530.31;;;6.78;67.97
34979;BME280;21185;50.978;13.720;2023-12-20T16:15:26;97526.13;;;6.77;67.98
34979;BME280;21185;50.978;13.720;2023-12-20T16:20:28;97525.31;;;6.77;68.24
34979;BME280;21185;50.978;13.720;2023-12-20T16:25:30;97524.69;;;6.75;68.20
34979;BME280;21185;50.978;13.720;2023-12-20T16:30:39;97526.44;;;6.74;68.63
34979;BME280;21185;50.978;13.720;2023-12-20T16:35:41;97529.50;;;6.70;68.51
34979;BME280;21185;50.978;13.720;2023-12-20T16:40:44;97529.50;;;6.70;68.66
34979;BME280;21185;50.978;13.720;2023-12-20T16:45:46;97530.28;;;6.70;69.06
34979;BME280;21185;50.978;13.720;2023-12-20T16:50:48;97523.38;;;6.71;69.04
34979;BME280;21185;50.978;13.720;2023-12-20T16:55:51;97520.94;;;6.69;69.29
34979;BME280;21185;50.978;13.720;2023-12-20T17:00:54;97535.63;;;6.69;69.05
34979;BME280;21185;50.978;13.720;2023-12-20T17:05:56;97521.09;;;6.68;69.28
34979;BME280;21185;50.978;13.720;2023-12-20T17:10:58;97519.34;;;6.68;69.13
34979;BME280;21185;50.978;13.720;2023-12-20T17:16:01;97530.47;;;6.69;69.17
34979;BME280;21185;50.978;13.720;2023-12-20T17:21:03;97533.03;;;6.69;69.11
34979;BME280;21185;50.978;13.720;2023-12-20T17:26:05;97540.91;;;6.67;69.50
34979;BME280;21185;50.978;13.720;2023-12-20T17:31:08;97528.19;;;6.66;70.18
34979;BME280;21185;50.978;13.720;2023-12-20T17:36:11;97524.16;;;6.63;70.54
34979;BME280;21185;50.978;13.720;2023-12-20T17:41:16;97517.22;;;6.64;70.84
34979;BME280;21185;50.978;13.720;2023-12-20T17:46:18;97530.28;;;6.62;71.35
34979;BME280;21185;50.978;13.720;2023-12-20T17:51:32;97541.69;;;6.60;71.40
34979;BME280;21185;50.978;13.720;2023-12-20T17:56:34;97559.09;;;6.58;71.78
34979;BME280;21185;50.978;13.720;2023-12-20T18:01:37;97544.59;;;6.57;72.08
34979;BME280;21185;50.978;13.720;2023-12-20T18:06:40;97543.94;;;6.55;72.51
34979;BME280;21185;50.978;13.720;2023-12-20T18:11:42;97551.00;;;6.53;73.03
34979;BME280;21185;50.978;13.720;2023-12-20T18:16:44;97551.16;;;6.51;73.16
34979;BME280;21185;50.978;13.720;2023-12-20T18:21:46;97551.00;;;6.53;73.54
34979;BME280;21185;50.978;13.720;2023-12-20T18:26:48;97565.66;;;6.52;73.64
34979;BME280;21185;50.978;13.720;2023-12-20T18:31:51;97566.63;;;6.51;74.08
34979;BME280;21185;50.978;13.720;2023-12-20T18:36:53;97566.13;;;6.47;74.29
34979;BME280;21185;50.978;13.720;2023-12-20T18:41:55;97563.56;;;6.47;74.37
34979;BME280;21185;50.978;13.720;2023-12-20T18:46:57;97576.44;;;6.47;74.67
34979;BME280;21185;50.978;13.720;2023-12-20T18:51:59;97562.91;;;6.45;74.59
34979;BME280;21185;50.978;13.720;2023-12-20T18:57:07;97559.81;;;6.42;74.89
34979;BME280;21185;50.978;13.720;2023-12-20T19:02:11;97558.34;;;6.39;75.42
34979;BME280;21185;50.978;13.720;2023-12-20T19:07:14;97559.47;;;6.37;75.79
34979;BME280;21185;50.978;13.720;2023-12-20T19:12:16;97566.69;;;6.33;76.19
34979;BME280;21185;50.978;13.720;2023-12-20T19:17:19;97557.81;;;6.28;77.04
34979;BME280;21185;50.978;13.720;2023-12-20T19:22:22;97569.06;;;6.27;77.13
34979;BME280;21185;50.978;13.720;2023-12-20T19:27:25;97568.41;;;6.25;77.21
34979;BME280;21185;50.978;13.720;2023-12-20T19:32:28;97563.56;;;6.22;77.53
34979;BME280;21185;50.978;13.720;2023-12-20T19:37:30;97549.88;;;6.21;77.61
34979;BME280;21185;50.978;13.720;2023-12-20T19:42:32;97543.75;;;6.22;77.48
34979;BME280;21185;50.978;13.720;2023-12-20T19:47:38;97530.22;;;6.20;77.74
34979;BME280;21185;50.978;13.720;2023-12-20T19:52:40;97538.13;;;6.18;77.92
34979;BME280;21185;50.978;13.720;2023-12-20T19:57:42;97532.16;;;6.18;77.77
34979;BME280;21185;50.978;13.720;2023-12-20T20:02:44;97523.47;;;6.19;77.79
34979;BME280;21185;50.978;13.720;2023-12-20T20:07:47;97521.69;;;6.20;77.67
34979;BME280;21185;50.978;13.720;2023-12-20T20:12:49;97512.34;;;6.18;77.67
34979;BME280;21185;50.978;13.720;2023-12-20T20:17:51;97500.28;;;6.19;77.35
34979;BME280;21185;50.978;13.720;2023-12-20T20:22:53;97507.19;;;6.18;77.67
34979;BME280;21185;50.978;13.720;2023-12-20T20:27:55;97508.81;;;6.20;77.50
34979;BME280;21185;50.978;13.720;2023-12-20T20:32:57;97494.16;;;6.20;77.21
34979;BME280;21185;50.978;13.720;2023-12-20T20:38:00;97489.81;;;6.21;76.90
34979;BME280;21185;50.978;13.720;2023-12-20T20:43:02;97483.88;;;6.20;76.56
34979;BME280;21185;50.978;13.720;2023-12-20T20:48:05;97471.94;;;6.19;76.80
34979;BME280;21185;50.978;13.720;2023-12-20T20:53:26;97468.56;;;6.18;76.64
34979;BME280;21185;50.978;13.720;2023-12-20T20:58:28;97458.91;;;6.21;76.38
34979;BME280;21185;50.978;13.720;2023-12-20T21:03:31;97464.06;;;6.21;75.98
34979;BME280;21185;50.978;13.720;2023-12-20T21:08:33;97456.19;;;6.22;75.84
34979;BME280;21185;50.978;13.720;2023-12-20T21:13:35;97456.19;;;6.22;75.83
34979;BME280;21185;50.978;13.720;2023-12-20T21:18:43;97443.28;;;6.22;75.53
34979;BME280;21185;50.978;13.720;2023-12-20T21:23:48;97428.81;;;6.21;75.30
34979;BME280;21185;50.978;13.720;2023-12-20T21:28:50;97425.91;;;6.24;75.11
34979;BME280;21185;50.978;13.720;2023-12-20T21:33:52;97412.88;;;6.26;75.00
34979;BME280;21185;50.978;13.720;2023-12-20T21:38:56;97403.22;;;6.28;75.14
34979;BME280;21185;50.978;13.720;2023-12-20T21:43:58;97380.69;;;6.30;74.65
34979;BME280;21185;50.978;13.720;2023-12-20T21:49:01;97385.53;;;6.33;74.69
34979;BME280;21185;50.978;13.720;2023-12-20T21:54:03;97381.19;;;6.33;74.44
34979;BME280;21185;50.978;13.720;2023-12-20T21:59:07;97359.59;;;6.34;74.12
34979;BME280;21185;50.978;13.720;2023-12-20T22:04:09;97352.53;;;6.36;73.98
34979;BME280;21185;50.978;13.720;2023-12-20T22:09:11;97346.09;;;6.40;74.24
34979;BME280;21185;50.978;13.720;2023-12-20T22:14:13;97344.31;;;6.41;73.93
34979;BME280;21185;50.978;13.720;2023-12-20T22:19:16;97336.59;;;6.41;73.76
34979;BME280;21185;50.978;13.720;2023-12-20T22:24:19;97315.00;;;6.42;73.75
34979;BME280;21185;50.978;13.720;2023-12-20T22:29:24;97344.16;;;6.42;74.01
34979;BME280;21185;50.978;13.720;2023-12-20T22:34:27;97317.25;;;6.45;73.92
34979;BME280;21185;50.978;13.720;2023-12-20T22:39:55;97314.53;;;6.46;74.01
34979;BME280;21185;50.978;13.720;2023-12-20T22:44:57;97304.38;;;6.45;74.20
34979;BME280;21185;50.978;13.720;2023-12-20T22:49:59;97289.25;;;6.42;74.49
34979;BME280;21185;50.978;13.720;2023-12-20T22:55:01;97271.53;;;6.39;74.87
34979;BME280;21185;50.978;13.720;2023-12-20T23:00:05;97259.59;;;6.38;75.11
34979;BME280;21185;50.978;13.720;2023-12-20T23:10:41;97244.31;;;6.36;75.41
34979;BME280;21185;50.978;13.720;2023-12-20T23:15:43;97227.72;;;6.39;75.48
34979;BME280;21185;50.978;13.720;2023-12-20T23:20:45;97218.22;;;6.39;75.67
34979;BME280;21185;50.978;13.720;2023-12-20T23:25:49;97217.09;;;6.42;75.79
34979;BME280;21185;50.978;13.720;2023-12-20T23:30:54;97198.91;;;6.43;75.72
34979;BME280;21185;50.978;13.720;2023-12-20T23:35:57;97184.88;;;6.46;75.72
34979;BME280;21185;50.978;13.720;2023-12-20T23:40:59;97194.88;;;6.49;75.84
34979;BME280;21185;50.978;13.720;2023-12-20T23:46:01;97190.50;;;6.49;76.06
34979;BME280;21185;50.978;13.720;2023-12-20T23:51:03;97169.91;;;6.49;76.11
34979;BME280;21185;50.978;13.720;2023-12-20T23:56:06;97168.28;;;6.48;76.33
